Terminal Aerodrome Forecast
Issued by NWS Glasgow, MT

Home | Current Version | Previous Version | Text Only | Print | Product List | Glossary On
Versions: 1 2 3 4 5 6 7 8 9 10 11 12 13 14 15 16 17
039
FTUS45 KGGW 260520
TAFGGW
TAF
KGGW 260520Z 2606/2706 29009KT P6SM SCT045
     FM261400 30013KT P6SM FEW050
     FM262100 30014G22KT P6SM BKN060
     FM270100 30009KT P6SM SCT080=

USA.gov is the U.S. government's official web portal to all federal, state and local government web resources and services.